MHTG/TGU METAR and TAF weather

Enter ICAO airport designator
Station Type Date Time Source
MHTG METAR 2021/04/18 03:00 UTC NOAA

MHTG 180300Z 15004KT 070V210 7000 VCSH SCT028 FEW030CB BKN070 22/19 Q1018 A3006 RERA NOSIG


Station Type Date Time Source
MHTG Decoded METAR 2021/04/18 03:00 UTC NOAA

Tegucigalpa, Honduras (MHTG) 14-03N 087-13W 1007M
Apr 17, 2021 - 11:00 PM EDT / 2021.04.18 0300 UTC
Wind: from the SSE (150 degrees) at 5 MPH (4 KT) (direction variable):0
Visibility: 4 mile(s):0
Sky conditions: mostly cloudy
Weather: showers in the vicinity; Cumulonimbus clouds observed
Temperature: 71 F (22 C)
Dew Point: 66 F (19 C)
Relative Humidity: 83%
Pressure (altimeter): 30.06 in. Hg (1017 hPa)
ob: MHTG 180300Z 15004KT 070V210 7000 VCSH SCT028 FEW030CB BKN070 22/19 Q1018 A3006 RERA NOSIG
cycle: 3

Station Type Date Time Source
MHTG TAF 2021/04/17 18:42 UTC NOAA

TAF MHTG 171530Z 1718/1818 18008KT 9999 SCT032TCU TX30/1720Z TN19/1812Z
TEMPO 1721/1801 7000 -TSRA SCT032TCU FEW034CB SCT090
BECMG 1801/1803 SCT028
BECMG 1806/1808 00000KT 7000 FEW012 BKN026
BECMG 1814/1816 22004KT 9999 SCT028

Example: see airport list